createdAt,value
2023-01-19T00:00:51.599Z,98606.81
2023-01-19T00:03:18.638Z,98613.92
2023-01-19T00:05:46.427Z,98616.61
2023-01-19T00:08:16.414Z,98622.34
2023-01-19T00:10:45.039Z,98621.38
2023-01-19T00:13:12.194Z,98620.33
2023-01-19T00:15:39.363Z,98634.00
2023-01-19T00:18:06.154Z,98649.13
2023-01-19T00:20:32.965Z,98654.45
2023-01-19T00:23:00.119Z,98652.23
2023-01-19T00:25:27.059Z,98638.16
2023-01-19T00:27:53.877Z,98635.94
2023-01-19T00:30:20.762Z,98636.72
2023-01-19T00:32:47.480Z,98640.20
2023-01-19T00:35:14.354Z,98639.34
2023-01-19T00:37:41.044Z,98653.66
2023-01-19T00:40:08.865Z,98664.98
2023-01-19T00:42:41.720Z,98665.89
2023-01-19T00:45:09.753Z,98666.27
2023-01-19T00:47:36.546Z,98662.13
2023-01-19T00:50:03.350Z,98662.13
2023-01-19T00:52:30.055Z,98659.59
2023-01-19T00:54:56.742Z,98659.75
2023-01-19T00:57:23.646Z,98669.92
2023-01-19T00:59:50.368Z,98670.65
2023-01-19T01:02:17.280Z,98656.50
2023-01-19T01:04:44.238Z,98651.19
2023-01-19T01:07:11.029Z,98663.98
2023-01-19T01:09:37.727Z,98659.68
2023-01-19T01:12:04.533Z,98658.09
2023-01-19T01:14:32.951Z,98653.96
2023-01-19T01:17:00.825Z,98650.30
2023-01-19T01:19:27.621Z,98646.70
2023-01-19T01:21:55.617Z,98653.53
2023-01-19T01:24:22.406Z,98660.04
2023-01-19T01:26:49.109Z,98661.73
2023-01-19T01:29:15.830Z,98675.40
2023-01-19T01:31:42.682Z,98682.48
2023-01-19T01:34:09.615Z,98686.00
2023-01-19T01:36:36.399Z,98684.58
2023-01-19T01:39:03.205Z,98689.18
2023-01-19T01:41:30.043Z,98694.03
2023-01-19T01:44:01.890Z,98689.58
2023-01-19T01:46:30.481Z,98686.17
2023-01-19T01:49:03.608Z,98687.35
2023-01-19T01:51:37.305Z,98693.48
2023-01-19T01:54:32.268Z,98703.65
2023-01-19T01:57:03.998Z,98718.36
2023-01-19T01:59:34.939Z,98721.86
2023-01-19T02:02:25.625Z,98724.00
2023-01-19T02:04:55.777Z,98729.89
2023-01-19T02:07:49.024Z,98736.57
2023-01-19T02:10:34.578Z,98732.19
2023-01-19T02:13:20.311Z,98725.83
2023-01-19T02:15:56.184Z,98707.52
2023-01-19T02:18:23.988Z,98697.42
2023-01-19T02:20:54.365Z,98701.08
2023-01-19T02:23:31.719Z,98698.27
2023-01-19T02:25:58.846Z,98696.74
2023-01-19T02:28:26.257Z,98708.44
2023-01-19T02:30:53.013Z,98715.60
2023-01-19T02:33:19.854Z,98713.52
2023-01-19T02:35:46.678Z,98714.24
2023-01-19T02:38:13.760Z,98704.21
2023-01-19T02:40:40.460Z,98703.90
2023-01-19T02:43:07.142Z,98695.23
2023-01-19T02:45:33.843Z,98670.75
2023-01-19T02:48:00.551Z,98682.12
2023-01-19T02:50:49.974Z,98691.84
2023-01-19T02:53:36.674Z,98683.89
2023-01-19T02:56:28.639Z,98674.26
2023-01-19T02:59:15.987Z,98679.67
2023-01-19T03:01:52.528Z,98693.20
2023-01-19T03:04:32.708Z,98696.08
2023-01-19T03:07:14.815Z,98699.59
2023-01-19T03:09:43.448Z,98689.33
2023-01-19T03:12:19.689Z,98701.49
2023-01-19T03:14:46.685Z,98717.41
2023-01-19T03:17:13.389Z,98720.49
2023-01-19T03:19:41.299Z,98723.49
2023-01-19T03:22:13.438Z,98724.83
2023-01-19T03:24:42.094Z,98729.75
2023-01-19T03:27:11.906Z,98729.34
2023-01-19T03:29:38.763Z,98728.16
2023-01-19T03:32:09.274Z,98730.88
2023-01-19T03:34:36.176Z,98735.19
2023-01-19T03:37:03.996Z,98733.61
2023-01-19T03:39:30.916Z,98729.09
2023-01-19T03:41:59.434Z,98727.80
2023-01-19T03:44:26.446Z,98728.99
2023-01-19T03:46:53.247Z,98723.84
2023-01-19T03:49:19.957Z,98725.73
2023-01-19T03:51:46.736Z,98730.35
2023-01-19T03:54:13.430Z,98721.06
2023-01-19T03:56:40.114Z,98715.02
2023-01-19T03:59:07.563Z,98708.75
2023-01-19T04:01:34.401Z,98700.78
2023-01-19T04:04:01.232Z,98703.72
2023-01-19T04:06:28.450Z,98710.23
2023-01-19T04:08:55.137Z,98714.38
2023-01-19T04:11:21.841Z,98722.49
2023-01-19T04:13:48.557Z,98731.23
2023-01-19T04:16:20.056Z,98736.23
2023-01-19T04:18:46.964Z,98735.77
2023-01-19T04:21:13.654Z,98740.27
2023-01-19T04:23:40.346Z,98743.35
2023-01-19T04:26:08.000Z,98750.95
2023-01-19T04:28:35.296Z,98754.34
2023-01-19T04:31:02.040Z,98759.48
2023-01-19T04:33:29.105Z,98759.65
2023-01-19T04:35:56.314Z,98755.13
2023-01-19T04:38:24.167Z,98743.71
2023-01-19T04:40:51.260Z,98739.13
2023-01-19T04:43:18.656Z,98742.79
2023-01-19T04:45:46.282Z,98743.12
2023-01-19T04:48:13.694Z,98750.77
2023-01-19T04:50:41.717Z,98772.20
2023-01-19T04:53:08.649Z,98762.16
2023-01-19T04:55:35.329Z,98760.33
2023-01-19T04:58:02.058Z,98777.98
2023-01-19T05:00:28.688Z,98776.62
2023-01-19T05:02:55.380Z,98768.11
2023-01-19T05:05:22.117Z,98767.64
2023-01-19T05:07:48.781Z,98765.11
2023-01-19T05:10:15.997Z,98763.04
2023-01-19T05:12:42.734Z,98759.79
2023-01-19T05:15:10.195Z,98759.27
2023-01-19T05:17:36.979Z,98768.66
2023-01-19T05:20:04.299Z,98784.18
2023-01-19T05:22:31.097Z,98780.36
2023-01-19T05:24:58.382Z,98775.66
2023-01-19T05:27:25.024Z,98778.20
2023-01-19T05:29:52.050Z,98779.65
2023-01-19T05:32:18.785Z,98782.98
2023-01-19T05:34:45.441Z,98805.73
2023-01-19T05:37:12.200Z,98817.93
2023-01-19T05:39:38.938Z,98806.35
2023-01-19T05:42:05.760Z,98794.81
2023-01-19T05:44:32.418Z,98786.23
2023-01-19T05:46:59.220Z,98778.62
2023-01-19T05:49:25.898Z,98765.44
2023-01-19T05:51:52.547Z,98757.34
2023-01-19T05:54:19.294Z,98753.00
2023-01-19T05:56:46.052Z,98758.65
2023-01-19T05:59:12.787Z,98764.46
2023-01-19T06:01:40.290Z,98762.55
2023-01-19T06:04:07.297Z,98758.11
2023-01-19T06:06:33.970Z,98745.54
2023-01-19T06:09:00.638Z,98736.08
2023-01-19T06:11:27.332Z,98708.55
2023-01-19T06:13:54.032Z,98683.10
2023-01-19T06:16:20.762Z,98656.08
2023-01-19T06:18:47.417Z,98644.39
2023-01-19T06:21:14.428Z,98641.86
2023-01-19T06:23:41.249Z,98651.07
2023-01-19T06:26:07.977Z,98659.90
2023-01-19T06:28:34.772Z,98637.56
2023-01-19T06:31:01.558Z,98626.55
2023-01-19T06:33:28.674Z,98624.86
2023-01-19T06:35:55.551Z,98624.20
2023-01-19T06:38:22.268Z,98617.02
2023-01-19T06:40:58.279Z,98619.00
2023-01-19T06:43:25.353Z,98617.70
2023-01-19T06:45:52.227Z,98615.80
2023-01-19T06:48:19.123Z,98608.38
2023-01-19T06:50:45.987Z,98600.70
2023-01-19T06:53:12.890Z,98593.73
2023-01-19T06:55:39.602Z,98594.50
2023-01-19T06:58:06.585Z,98588.16
2023-01-19T07:00:33.275Z,98584.22
2023-01-19T07:03:00.817Z,98582.23
2023-01-19T07:05:27.906Z,98584.63
2023-01-19T07:07:55.222Z,98590.42
2023-01-19T07:10:22.128Z,98590.08
2023-01-19T07:12:48.797Z,98580.98
2023-01-19T07:15:16.290Z,98576.25
2023-01-19T07:17:43.531Z,98582.95
2023-01-19T07:20:13.066Z,98581.67
2023-01-19T07:22:41.298Z,98589.33
2023-01-19T07:25:08.309Z,98591.29
2023-01-19T07:27:34.955Z,98588.86
2023-01-19T07:30:01.663Z,98591.11
2023-01-19T07:32:28.787Z,98589.42
2023-01-19T07:34:55.466Z,98585.84
2023-01-19T07:37:22.221Z,98594.15
2023-01-19T07:39:48.882Z,98601.21
2023-01-19T07:42:15.598Z,98593.73
2023-01-19T07:44:42.307Z,98593.60
2023-01-19T07:47:12.526Z,98591.80
2023-01-19T07:49:39.672Z,98584.82
2023-01-19T07:52:06.403Z,98581.43
2023-01-19T07:54:33.261Z,98592.05
2023-01-19T07:57:00.857Z,98604.70
2023-01-19T07:59:31.161Z,98603.30
2023-01-19T08:01:59.560Z,98606.61
2023-01-19T08:04:29.433Z,98613.66
2023-01-19T08:06:56.172Z,98618.13
2023-01-19T08:09:23.892Z,98617.27
2023-01-19T08:11:50.588Z,98604.90
2023-01-19T08:14:17.436Z,98611.90
2023-01-19T08:16:44.194Z,98608.98
2023-01-19T08:19:10.908Z,98605.26
2023-01-19T08:21:38.946Z,98605.65
2023-01-19T08:24:06.061Z,98609.94
2023-01-19T08:26:34.493Z,98625.99
2023-01-19T08:29:03.053Z,98636.88
2023-01-19T08:31:29.890Z,98646.41
2023-01-19T08:33:56.734Z,98647.77
2023-01-19T08:36:25.030Z,98653.17
2023-01-19T08:38:51.910Z,98654.93
2023-01-19T08:41:18.651Z,98657.55
2023-01-19T08:43:45.532Z,98665.86
2023-01-19T08:46:12.509Z,98685.73
2023-01-19T08:48:40.080Z,98679.85
2023-01-19T08:51:06.837Z,98667.69
2023-01-19T08:53:34.196Z,98669.73
2023-01-19T08:56:01.345Z,98672.33
2023-01-19T08:58:28.388Z,98685.33
2023-01-19T09:00:55.185Z,98690.06
2023-01-19T09:03:22.821Z,98690.97
2023-01-19T09:05:49.755Z,98682.15
2023-01-19T09:08:16.579Z,98679.05
2023-01-19T09:10:48.011Z,98680.88
2023-01-19T09:13:14.936Z,98674.04
2023-01-19T09:15:43.173Z,98664.67
2023-01-19T09:18:13.550Z,98658.00
2023-01-19T09:20:44.339Z,98658.17
2023-01-19T09:23:12.261Z,98658.73
2023-01-19T09:25:39.504Z,98652.08
2023-01-19T09:28:07.709Z,98647.18
2023-01-19T09:30:36.718Z,98643.47
2023-01-19T09:33:06.341Z,98641.17
2023-01-19T09:35:33.858Z,98636.04
2023-01-19T09:38:01.041Z,98631.75
2023-01-19T09:40:28.560Z,98631.67
2023-01-19T09:43:01.269Z,98624.44
2023-01-19T09:45:42.724Z,98618.33
2023-01-19T09:48:35.748Z,98617.39
2023-01-19T09:51:03.771Z,98606.36
2023-01-19T09:53:40.294Z,98603.10
2023-01-19T09:56:15.354Z,98602.79
2023-01-19T09:58:42.159Z,98602.94
2023-01-19T10:01:36.463Z,98595.30
2023-01-19T10:04:22.619Z,98590.39
2023-01-19T10:06:49.520Z,98584.19
2023-01-19T10:09:25.198Z,98577.58
2023-01-19T10:11:55.387Z,98579.80
2023-01-19T10:14:44.610Z,98575.53
2023-01-19T10:17:20.385Z,98574.58
2023-01-19T10:19:49.489Z,98567.27
2023-01-19T10:22:26.889Z,98564.70
2023-01-19T10:24:55.848Z,98562.07
2023-01-19T10:27:24.987Z,98560.63
2023-01-19T10:29:51.832Z,98554.73
2023-01-19T10:32:34.257Z,98554.25
2023-01-19T10:35:01.058Z,98552.57
2023-01-19T10:37:32.495Z,98551.30
2023-01-19T10:40:02.667Z,98542.52
2023-01-19T10:42:30.921Z,98543.63
2023-01-19T10:44:57.902Z,98534.23
2023-01-19T10:47:30.573Z,98528.83
2023-01-19T10:49:57.363Z,98522.27
2023-01-19T10:52:35.532Z,98525.20
2023-01-19T10:55:03.037Z,98526.79
2023-01-19T10:57:32.614Z,98522.88
2023-01-19T10:59:59.422Z,98526.63
2023-01-19T11:02:28.036Z,98525.90
2023-01-19T11:04:59.280Z,98516.73
2023-01-19T11:07:27.023Z,98514.02
2023-01-19T11:10:12.626Z,98508.76
2023-01-19T11:13:01.687Z,98506.78
2023-01-19T11:15:41.025Z,98500.38
2023-01-19T11:18:07.896Z,98507.77
2023-01-19T11:20:49.747Z,98511.56
2023-01-19T11:23:28.636Z,98513.48
2023-01-19T11:26:01.296Z,98501.77
2023-01-19T11:28:36.713Z,98504.33
2023-01-19T11:31:18.538Z,98497.54
2023-01-19T11:33:50.831Z,98490.98
2023-01-19T11:36:22.917Z,98481.91
2023-01-19T11:38:53.488Z,98482.86
2023-01-19T11:41:29.652Z,98483.14
2023-01-19T11:44:12.085Z,98484.92
2023-01-19T11:46:43.486Z,98478.20
2023-01-19T11:49:25.887Z,98486.80
2023-01-19T11:52:00.169Z,98489.52
2023-01-19T11:55:03.642Z,98487.97
2023-01-19T11:57:33.990Z,98479.64
2023-01-19T12:00:05.653Z,98483.27
2023-01-19T12:02:45.168Z,98490.49
2023-01-19T12:05:16.966Z,98484.05
2023-01-19T12:07:46.103Z,98479.54
2023-01-19T12:10:33.206Z,98476.73
2023-01-19T12:13:02.470Z,98479.36
2023-01-19T12:15:43.056Z,98488.35
2023-01-19T12:18:41.238Z,98495.52
2023-01-19T12:21:10.668Z,98493.54
2023-01-19T12:23:53.649Z,98483.67
2023-01-19T12:26:57.608Z,98475.56
2023-01-19T12:29:30.468Z,98476.49
2023-01-19T12:32:18.196Z,98477.63
2023-01-19T12:34:51.914Z,98480.65
2023-01-19T12:37:35.692Z,98476.86
2023-01-19T12:50:24.158Z,98491.68
2023-01-19T12:52:58.708Z,98495.48
2023-01-19T12:55:27.807Z,98502.08
2023-01-19T12:58:08.080Z,98499.95
2023-01-19T13:00:39.471Z,98494.09
2023-01-19T13:03:32.363Z,98494.77
2023-01-19T13:05:59.280Z,98478.94
2023-01-19T13:08:29.850Z,98475.88
2023-01-19T13:10:59.848Z,98484.62
2023-01-19T13:13:29.565Z,98477.52
2023-01-19T13:15:57.331Z,98482.23
2023-01-19T13:18:25.361Z,98476.05
2023-01-19T13:21:02.560Z,98478.50
2023-01-19T13:23:50.016Z,98489.59
2023-01-19T13:26:21.100Z,98490.02
2023-01-19T13:28:53.445Z,98498.20
2023-01-19T13:31:20.301Z,98509.25
2023-01-19T13:33:52.789Z,98512.69
2023-01-19T13:36:26.984Z,98522.95
2023-01-19T13:38:54.091Z,98503.51
2023-01-19T13:41:25.734Z,98509.85
2023-01-19T13:43:58.816Z,98508.56
2023-01-19T13:46:26.454Z,98510.02
2023-01-19T13:49:01.611Z,98515.43
2023-01-19T13:51:28.397Z,98529.23
2023-01-19T13:53:58.989Z,98524.07
2023-01-19T13:56:28.541Z,98530.98
2023-01-19T13:59:10.047Z,98524.33
2023-01-19T14:01:38.489Z,98521.38
2023-01-19T14:04:05.511Z,98545.40
2023-01-19T14:06:40.542Z,98534.16
2023-01-19T14:09:16.612Z,98526.13
2023-01-19T14:12:03.681Z,98531.17
2023-01-19T14:14:30.419Z,98536.16
2023-01-19T14:16:57.098Z,98539.70
2023-01-19T14:19:23.839Z,98542.95
2023-01-19T14:22:04.056Z,98548.12
2023-01-19T14:24:33.389Z,98544.40
2023-01-19T14:27:19.436Z,98546.73
2023-01-19T14:29:47.611Z,98554.00
2023-01-19T14:32:24.202Z,98547.74
2023-01-19T14:34:53.780Z,98548.08
2023-01-19T14:37:25.848Z,98558.09
2023-01-19T14:40:01.952Z,98545.23
2023-01-19T14:42:29.929Z,98547.02
2023-01-19T14:44:57.416Z,98555.27
2023-01-19T14:47:29.662Z,98540.14
2023-01-19T14:50:00.344Z,98535.36
2023-01-19T14:52:30.759Z,98531.68
2023-01-19T14:54:57.474Z,98529.21
2023-01-19T14:57:24.169Z,98535.00
2023-01-19T14:59:50.938Z,98548.59
2023-01-19T15:02:21.531Z,98542.65
2023-01-19T15:04:48.281Z,98549.38
2023-01-19T15:07:22.526Z,98536.48
2023-01-19T15:09:49.239Z,98533.02
2023-01-19T15:12:17.473Z,98534.93
2023-01-19T15:14:45.076Z,98530.66
2023-01-19T15:17:25.487Z,98533.90
2023-01-19T15:19:55.512Z,98532.90
2023-01-19T15:22:22.827Z,98534.41
2023-01-19T15:24:49.853Z,98532.80
2023-01-19T15:27:16.950Z,98533.71
2023-01-19T15:29:43.748Z,98545.19
2023-01-19T15:32:14.262Z,98544.34
2023-01-19T15:34:41.500Z,98539.70
2023-01-19T15:37:08.358Z,98528.48
2023-01-19T15:39:35.512Z,98536.42
2023-01-19T15:42:02.353Z,98536.58
2023-01-19T15:44:29.695Z,98534.29
2023-01-19T15:46:57.502Z,98537.02
2023-01-19T15:49:24.317Z,98532.25
2023-01-19T15:51:51.081Z,98529.05
2023-01-19T15:54:18.219Z,98531.96
2023-01-19T15:56:45.092Z,98539.77
2023-01-19T15:59:11.790Z,98545.36
2023-01-19T16:01:38.554Z,98533.88
2023-01-19T16:04:06.419Z,98540.05
2023-01-19T16:06:33.544Z,98540.48
2023-01-19T16:09:01.545Z,98547.42
2023-01-19T16:11:29.884Z,98542.86
2023-01-19T16:13:56.688Z,98552.77
2023-01-19T16:16:24.526Z,98553.52
2023-01-19T16:18:51.390Z,98556.59
2023-01-19T16:21:18.099Z,98559.72
2023-01-19T16:23:44.791Z,98558.25
2023-01-19T16:26:24.869Z,98560.17
2023-01-19T16:28:51.560Z,98555.89
2023-01-19T16:31:18.390Z,98556.48
2023-01-19T16:33:45.344Z,98555.94
2023-01-19T16:36:20.171Z,98554.98
2023-01-19T16:38:46.875Z,98547.27
2023-01-19T16:41:13.627Z,98550.92
2023-01-19T16:43:40.431Z,98547.31
2023-01-19T16:46:07.165Z,98549.02
2023-01-19T16:48:34.028Z,98542.75
2023-01-19T16:51:05.248Z,98540.02
2023-01-19T16:53:34.950Z,98544.61
2023-01-19T16:56:08.497Z,98541.39
2023-01-19T16:58:37.510Z,98537.81
2023-01-19T17:01:12.497Z,98534.34
2023-01-19T17:03:39.670Z,98531.65
2023-01-19T17:06:07.294Z,98538.67
2023-01-19T17:08:34.812Z,98527.60
2023-01-19T17:11:04.931Z,98531.30
2023-01-19T17:13:31.983Z,98540.99
2023-01-19T17:16:00.767Z,98540.26
2023-01-19T17:18:31.117Z,98541.31
2023-01-19T17:21:02.887Z,98541.77
2023-01-19T17:23:30.106Z,98541.52
2023-01-19T17:25:57.991Z,98543.39
2023-01-19T17:28:25.431Z,98542.39
2023-01-19T17:30:52.649Z,98538.92
2023-01-19T17:33:20.755Z,98544.30
2023-01-19T17:35:47.471Z,98539.42
2023-01-19T17:38:14.265Z,98528.91
2023-01-19T17:40:41.283Z,98532.51
2023-01-19T17:43:08.070Z,98535.02
2023-01-19T17:45:36.306Z,98536.73
2023-01-19T17:48:04.385Z,98529.98
2023-01-19T17:50:32.758Z,98536.98
2023-01-19T17:52:59.495Z,98536.42
2023-01-19T17:55:26.444Z,98540.86
2023-01-19T17:57:53.390Z,98534.83
2023-01-19T18:00:20.690Z,98534.59
2023-01-19T18:02:51.911Z,98537.53
2023-01-19T18:05:19.299Z,98527.98
2023-01-19T18:07:47.215Z,98533.27
2023-01-19T18:10:14.507Z,98541.64
2023-01-19T18:12:41.618Z,98536.21
2023-01-19T18:15:09.079Z,98538.52
2023-01-19T18:17:36.156Z,98545.13
2023-01-19T18:20:03.480Z,98542.50
2023-01-19T18:22:30.528Z,98532.69
2023-01-19T18:24:57.471Z,98535.23
2023-01-19T18:27:24.430Z,98533.20
2023-01-19T18:29:51.378Z,98541.14
2023-01-19T18:32:18.292Z,98531.78
2023-01-19T18:34:45.254Z,98529.10
2023-01-19T18:37:11.991Z,98531.23
2023-01-19T18:39:38.770Z,98530.95
2023-01-19T18:42:05.685Z,98534.45
2023-01-19T18:44:32.485Z,98532.19
2023-01-19T18:46:59.223Z,98540.79
2023-01-19T18:49:26.008Z,98545.98
2023-01-19T18:51:52.770Z,98547.77
2023-01-19T18:54:20.220Z,98544.75
2023-01-19T18:56:49.306Z,98537.41
2023-01-19T18:59:16.044Z,98539.85
2023-01-19T19:01:43.064Z,98541.03
2023-01-19T19:04:10.257Z,98540.53
2023-01-19T19:06:37.291Z,98539.23
2023-01-19T19:09:04.392Z,98540.73
2023-01-19T19:11:31.167Z,98540.67
2023-01-19T19:14:00.589Z,98543.60
2023-01-19T19:16:27.453Z,98548.23
2023-01-19T19:18:54.215Z,98543.66
2023-01-19T19:21:21.770Z,98548.08
2023-01-19T19:23:53.101Z,98543.84
2023-01-19T19:26:19.881Z,98550.73
2023-01-19T19:28:47.790Z,98552.23
2023-01-19T19:31:16.952Z,98548.70
2023-01-19T19:33:44.141Z,98551.08
2023-01-19T19:36:11.897Z,98554.17
2023-01-19T19:38:41.373Z,98560.96
2023-01-19T19:41:09.383Z,98556.08
2023-01-19T19:43:36.737Z,98554.12
2023-01-19T19:46:05.787Z,98563.33
2023-01-19T19:48:32.750Z,98556.12
2023-01-19T19:51:28.914Z,98559.88
2023-01-19T19:53:57.093Z,98561.56
2023-01-19T19:56:24.357Z,98561.05
2023-01-19T19:58:51.378Z,98567.80
2023-01-19T20:01:25.925Z,98569.61
2023-01-19T20:03:53.792Z,98565.26
2023-01-19T20:06:22.859Z,98566.73
2023-01-19T20:08:50.195Z,98563.35
2023-01-19T20:11:19.017Z,98566.77
2023-01-19T20:13:47.910Z,98570.60
2023-01-19T20:16:19.316Z,98571.36
2023-01-19T20:18:48.861Z,98574.23
2023-01-19T20:21:20.583Z,98575.77
2023-01-19T20:23:47.710Z,98579.86
2023-01-19T20:26:15.713Z,98593.63
2023-01-19T20:28:42.808Z,98593.47
2023-01-19T20:31:10.654Z,98591.64
2023-01-19T20:33:37.555Z,98594.77
2023-01-19T20:36:04.956Z,98595.52
2023-01-19T20:38:32.163Z,98602.38
2023-01-19T20:40:59.041Z,98601.37
2023-01-19T20:43:26.007Z,98595.30
2023-01-19T20:45:52.925Z,98602.31
2023-01-19T20:48:19.675Z,98595.95
2023-01-19T20:50:46.383Z,98599.48
2023-01-19T20:53:13.073Z,98601.70
2023-01-19T20:55:40.024Z,98606.24
2023-01-19T20:58:06.853Z,98605.31
2023-01-19T21:00:35.015Z,98605.17
2023-01-19T21:03:02.099Z,98608.32
2023-01-19T21:05:29.040Z,98615.45
2023-01-19T21:07:55.778Z,98607.34
2023-01-19T21:10:22.690Z,98609.68
2023-01-19T21:12:49.482Z,98616.72
2023-01-19T21:15:16.419Z,98618.73
2023-01-19T21:17:45.110Z,98616.26
2023-01-19T21:20:12.446Z,98619.17
2023-01-19T21:22:39.452Z,98623.19
2023-01-19T21:25:07.679Z,98622.57
2023-01-19T21:27:34.375Z,98629.53
2023-01-19T21:30:02.687Z,98636.33
2023-01-19T21:32:29.513Z,98630.70
2023-01-19T21:34:56.477Z,98637.76
2023-01-19T21:37:23.209Z,98648.86
2023-01-19T21:39:50.170Z,98640.52
2023-01-19T21:42:17.111Z,98655.75
2023-01-19T21:44:44.056Z,98652.34
2023-01-19T21:47:12.053Z,98652.41
2023-01-19T21:49:38.754Z,98649.08
2023-01-19T21:52:05.626Z,98654.67
2023-01-19T21:54:32.555Z,98656.61
2023-01-19T21:57:01.276Z,98662.10
2023-01-19T21:59:28.393Z,98665.21
2023-01-19T22:01:55.143Z,98664.89
2023-01-19T22:04:22.000Z,98665.23
2023-01-19T22:06:48.722Z,98666.28
2023-01-19T22:09:15.419Z,98680.46
2023-01-19T22:11:42.180Z,98677.59
2023-01-19T22:14:08.902Z,98682.46
2023-01-19T22:16:35.756Z,98692.33
2023-01-19T22:19:02.863Z,98692.52
2023-01-19T22:21:35.128Z,98701.05
2023-01-19T22:24:02.567Z,98705.45
2023-01-19T22:26:30.051Z,98712.59
2023-01-19T22:28:59.187Z,98704.89
2023-01-19T22:31:26.636Z,98702.67
2023-01-19T22:33:53.727Z,98692.36
2023-01-19T22:36:22.503Z,98703.23
2023-01-19T22:38:55.404Z,98699.91
2023-01-19T22:41:27.058Z,98702.06
2023-01-19T22:43:55.329Z,98704.95
2023-01-19T22:46:23.869Z,98706.53
2023-01-19T22:48:50.855Z,98704.26
2023-01-19T22:51:17.770Z,98709.77
2023-01-19T22:53:44.962Z,98705.85
2023-01-19T22:56:16.188Z,98708.39
2023-01-19T22:58:45.747Z,98712.11
2023-01-19T23:01:13.986Z,98710.67
2023-01-19T23:03:40.897Z,98713.88
2023-01-19T23:06:12.509Z,98712.84
2023-01-19T23:08:39.716Z,98714.15
2023-01-19T23:11:17.772Z,98717.03
2023-01-19T23:13:44.623Z,98714.88
2023-01-19T23:16:12.459Z,98715.75
2023-01-19T23:18:39.668Z,98726.63
2023-01-19T23:21:08.405Z,98725.30
2023-01-19T23:23:35.416Z,98725.33
2023-01-19T23:26:03.742Z,98725.56
2023-01-19T23:28:31.166Z,98728.91
2023-01-19T23:30:57.948Z,98730.66
2023-01-19T23:33:24.798Z,98727.85
2023-01-19T23:35:51.632Z,98728.50
2023-01-19T23:38:18.391Z,98727.88
2023-01-19T23:40:45.128Z,98724.79
2023-01-19T23:43:12.043Z,98728.94
2023-01-19T23:45:38.765Z,98726.42
2023-01-19T23:48:05.680Z,98724.09
2023-01-19T23:50:32.469Z,98731.93
2023-01-19T23:52:59.237Z,98730.03
2023-01-19T23:55:27.386Z,98727.87
2023-01-19T23:57:54.090Z,98728.09
